sensor_id;sensor_type;location;lat;lon;timestamp;pressure;altitude;pressure_sealevel;temperature;humidity
54172;BME280;40076;52.354;4.970;2022-11-15T00:00:47;100835.38;;;7.21;100.00
54172;BME280;40076;52.354;4.970;2022-11-15T00:03:17;100831.28;;;7.24;100.00
54172;BME280;40076;52.354;4.970;2022-11-15T00:05:43;100837.16;;;7.26;100.00
54172;BME280;40076;52.354;4.970;2022-11-15T00:08:08;100843.63;;;7.25;100.00
54172;BME280;40076;52.354;4.970;2022-11-15T00:10:34;100829.88;;;7.26;100.00
54172;BME280;40076;52.354;4.970;2022-11-15T00:13:00;100836.06;;;7.27;100.00
54172;BME280;40076;52.354;4.970;2022-11-15T00:15:25;100837.16;;;7.26;100.00
54172;BME280;40076;52.354;4.970;2022-11-15T00:17:50;100832.56;;;7.26;100.00
54172;BME280;40076;52.354;4.970;2022-11-15T00:20:18;100830.69;;;7.27;100.00
54172;BME280;40076;52.354;4.970;2022-11-15T00:22:43;100825.31;;;7.27;100.00
54172;BME280;40076;52.354;4.970;2022-11-15T00:25:09;100828.81;;;7.27;100.00
54172;BME280;40076;52.354;4.970;2022-11-15T00:27:34;100827.13;;;7.31;100.00
54172;BME280;40076;52.354;4.970;2022-11-15T00:30:00;100832.50;;;7.31;100.00
54172;BME280;40076;52.354;4.970;2022-11-15T00:32:25;100826.00;;;7.32;100.00
54172;BME280;40076;52.354;4.970;2022-11-15T00:34:50;100815.25;;;7.32;100.00
54172;BME280;40076;52.354;4.970;2022-11-15T00:37:16;100821.44;;;7.33;100.00
54172;BME280;40076;52.354;4.970;2022-11-15T00:39:41;100830.00;;;7.35;100.00
54172;BME280;40076;52.354;4.970;2022-11-15T00:42:06;100833.50;;;7.35;100.00
54172;BME280;40076;52.354;4.970;2022-11-15T00:44:32;100819.75;;;7.37;100.00
54172;BME280;40076;52.354;4.970;2022-11-15T00:46:57;100826.72;;;7.38;100.00
54172;BME280;40076;52.354;4.970;2022-11-15T00:49:22;100815.97;;;7.38;100.00
54172;BME280;40076;52.354;4.970;2022-11-15T00:51:48;100806.50;;;7.41;100.00
54172;BME280;40076;52.354;4.970;2022-11-15T00:54:13;100805.13;;;7.43;100.00
54172;BME280;40076;52.354;4.970;2022-11-15T00:56:38;100801.34;;;7.44;100.00
54172;BME280;40076;52.354;4.970;2022-11-15T00:59:03;100798.38;;;7.46;100.00
54172;BME280;40076;52.354;4.970;2022-11-15T01:01:29;100791.38;;;7.45;100.00
54172;BME280;40076;52.354;4.970;2022-11-15T01:03:54;100794.59;;;7.47;100.00
54172;BME280;40076;52.354;4.970;2022-11-15T01:06:19;100796.16;;;7.48;100.00
54172;BME280;40076;52.354;4.970;2022-11-15T01:08:45;100801.22;;;7.49;100.00
54172;BME280;40076;52.354;4.970;2022-11-15T01:11:11;100801.22;;;7.49;100.00
54172;BME280;40076;52.354;4.970;2022-11-15T01:13:38;100792.06;;;7.50;100.00
54172;BME280;40076;52.354;4.970;2022-11-15T01:16:17;100800.94;;;7.51;100.00
54172;BME280;40076;52.354;4.970;2022-11-15T01:18:44;100788.81;;;7.53;100.00
54172;BME280;40076;52.354;4.970;2022-11-15T01:21:12;100788.81;;;7.53;100.00
54172;BME280;40076;52.354;4.970;2022-11-15T01:23:39;100785.50;;;7.56;100.00
54172;BME280;40076;52.354;4.970;2022-11-15T01:26:06;100787.09;;;7.57;100.00
54172;BME280;40076;52.354;4.970;2022-11-15T01:28:34;100790.28;;;7.59;100.00
54172;BME280;40076;52.354;4.970;2022-11-15T01:31:01;100787.59;;;7.59;100.00
54172;BME280;40076;52.354;4.970;2022-11-15T01:33:28;100792.97;;;7.59;100.00
54172;BME280;40076;52.354;4.970;2022-11-15T01:35:54;100788.41;;;7.60;100.00
54172;BME280;40076;52.354;4.970;2022-11-15T01:38:19;100782.72;;;7.61;100.00
54172;BME280;40076;52.354;4.970;2022-11-15T01:40:45;100775.47;;;7.62;100.00
54172;BME280;40076;52.354;4.970;2022-11-15T01:45:51;100775.94;;;7.64;100.00
54172;BME280;40076;52.354;4.970;2022-11-15T01:48:18;100771.06;;;7.66;100.00
54172;BME280;40076;52.354;4.970;2022-11-15T01:50:45;100771.84;;;7.66;100.00
54172;BME280;40076;52.354;4.970;2022-11-15T01:53:10;100768.06;;;7.67;100.00
54172;BME280;40076;52.354;4.970;2022-11-15T01:55:36;100765.09;;;7.69;100.00
54172;BME280;40076;52.354;4.970;2022-11-15T01:58:03;100768.59;;;7.69;100.00
54172;BME280;40076;52.354;4.970;2022-11-15T02:00:29;100759.09;;;7.72;100.00
54172;BME280;40076;52.354;4.970;2022-11-15T02:02:55;100759.88;;;7.72;100.00
54172;BME280;40076;52.354;4.970;2022-11-15T02:05:21;100755.00;;;7.74;100.00
54172;BME280;40076;52.354;4.970;2022-11-15T02:07:47;100757.41;;;7.76;100.00
54172;BME280;40076;52.354;4.970;2022-11-15T02:10:18;100750.13;;;7.77;100.00
54172;BME280;40076;52.354;4.970;2022-11-15T02:12:45;100746.03;;;7.79;100.00
54172;BME280;40076;52.354;4.970;2022-11-15T02:15:11;100743.84;;;7.81;100.00
54172;BME280;40076;52.354;4.970;2022-11-15T02:29:03;100714.34;;;7.90;100.00
54172;BME280;40076;52.354;4.970;2022-11-15T02:31:39;100717.03;;;7.90;100.00
54172;BME280;40076;52.354;4.970;2022-11-15T02:34:16;100712.94;;;7.92;100.00
54172;BME280;40076;52.354;4.970;2022-11-15T02:37:11;100705.03;;;7.96;100.00
54172;BME280;40076;52.354;4.970;2022-11-15T02:42:14;100695.88;;;7.97;100.00
54172;BME280;40076;52.354;4.970;2022-11-15T02:45:05;100696.06;;;8.00;100.00
54172;BME280;40076;52.354;4.970;2022-11-15T02:47:40;100696.53;;;8.02;100.00
54172;BME280;40076;52.354;4.970;2022-11-15T02:50:09;100691.66;;;8.04;100.00
54172;BME280;40076;52.354;4.970;2022-11-15T02:52:35;100690.28;;;8.07;100.00
54172;BME280;40076;52.354;4.970;2022-11-15T02:55:01;100688.84;;;8.09;100.00
54172;BME280;40076;52.354;4.970;2022-11-15T02:57:45;100680.16;;;8.12;100.00
54172;BME280;40076;52.354;4.970;2022-11-15T03:00:15;100677.19;;;8.14;100.00
54172;BME280;40076;52.354;4.970;2022-11-15T03:11:34;100673.13;;;8.25;100.00
54172;BME280;40076;52.354;4.970;2022-11-15T03:14:16;100674.41;;;8.28;100.00
54172;BME280;40076;52.354;4.970;2022-11-15T03:19:33;100680.78;;;8.32;100.00
54172;BME280;40076;52.354;4.970;2022-11-15T03:22:03;100676.69;;;8.34;100.00
54172;BME280;40076;52.354;4.970;2022-11-15T03:24:33;100679.59;;;8.38;100.00
54172;BME280;40076;52.354;4.970;2022-11-15T03:27:01;100683.25;;;8.42;100.00
54172;BME280;40076;52.354;4.970;2022-11-15T03:29:39;100680.41;;;8.47;100.00
54172;BME280;40076;52.354;4.970;2022-11-15T03:32:11;100681.69;;;8.49;100.00
54172;BME280;40076;52.354;4.970;2022-11-15T03:34:44;100675.09;;;8.56;100.00
54172;BME280;40076;52.354;4.970;2022-11-15T03:37:14;100669.09;;;8.59;100.00
54172;BME280;40076;52.354;4.970;2022-11-15T03:39:40;100678.13;;;8.63;100.00
54172;BME280;40076;52.354;4.970;2022-11-15T03:44:52;100676.13;;;8.68;100.00
54172;BME280;40076;52.354;4.970;2022-11-15T03:47:36;100672.47;;;8.73;100.00
54172;BME280;40076;52.354;4.970;2022-11-15T03:50:16;100676.16;;;8.77;100.00
54172;BME280;40076;52.354;4.970;2022-11-15T03:52:45;100675.03;;;8.78;100.00
54172;BME280;40076;52.354;4.970;2022-11-15T03:55:17;100666.03;;;8.82;100.00
54172;BME280;40076;52.354;4.970;2022-11-15T03:57:43;100676.16;;;8.85;100.00
54172;BME280;40076;52.354;4.970;2022-11-15T04:00:09;100663.19;;;8.87;100.00
54172;BME280;40076;52.354;4.970;2022-11-15T04:02:35;100665.28;;;8.90;100.00
54172;BME280;40076;52.354;4.970;2022-11-15T04:05:00;100663.84;;;8.93;100.00
54172;BME280;40076;52.354;4.970;2022-11-15T04:07:26;100666.72;;;8.97;100.00
54172;BME280;40076;52.354;4.970;2022-11-15T04:09:51;100662.63;;;8.99;100.00
54172;BME280;40076;52.354;4.970;2022-11-15T04:12:36;100656.59;;;9.02;100.00
54172;BME280;40076;52.354;4.970;2022-11-15T04:15:11;100659.47;;;9.06;100.00
54172;BME280;40076;52.354;4.970;2022-11-15T04:17:41;100665.00;;;9.09;100.00
54172;BME280;40076;52.354;4.970;2022-11-15T04:22:54;100661.41;;;9.14;100.00
54172;BME280;40076;52.354;4.970;2022-11-15T04:25:40;100661.53;;;9.17;100.00
54172;BME280;40076;52.354;4.970;2022-11-15T04:28:09;100660.94;;;9.20;100.00
54172;BME280;40076;52.354;4.970;2022-11-15T04:30:35;100661.09;;;9.24;100.00
54172;BME280;40076;52.354;4.970;2022-11-15T04:33:00;100656.19;;;9.26;100.00
54172;BME280;40076;52.354;4.970;2022-11-15T04:35:25;100665.25;;;9.30;100.00
54172;BME280;40076;52.354;4.970;2022-11-15T04:37:51;100660.00;;;9.34;100.00
54172;BME280;40076;52.354;4.970;2022-11-15T04:40:17;100652.41;;;9.36;100.00
54172;BME280;40076;52.354;4.970;2022-11-15T04:42:42;100653.34;;;9.40;100.00
54172;BME280;40076;52.354;4.970;2022-11-15T04:45:08;100651.94;;;9.42;100.00
54172;BME280;40076;52.354;4.970;2022-11-15T04:47:33;100650.53;;;9.45;100.00
54172;BME280;40076;52.354;4.970;2022-11-15T04:49:59;100650.66;;;9.48;100.00
54172;BME280;40076;52.354;4.970;2022-11-15T04:52:24;100650.06;;;9.51;100.00
54172;BME280;40076;52.354;4.970;2022-11-15T04:54:49;100651.00;;;9.55;100.00
54172;BME280;40076;52.354;4.970;2022-11-15T04:57:15;100646.88;;;9.58;100.00
54172;BME280;40076;52.354;4.970;2022-11-15T04:59:40;100650.06;;;9.60;100.00
54172;BME280;40076;52.354;4.970;2022-11-15T05:02:05;100644.81;;;9.63;100.00
54172;BME280;40076;52.354;4.970;2022-11-15T05:04:30;100646.88;;;9.66;100.00
54172;BME280;40076;52.354;4.970;2022-11-15T05:06:56;100647.81;;;9.71;100.00
54172;BME280;40076;52.354;4.970;2022-11-15T05:09:21;100658.31;;;9.72;100.00
54172;BME280;40076;52.354;4.970;2022-11-15T05:11:47;100658.78;;;9.74;100.00
54172;BME280;40076;52.354;4.970;2022-11-15T05:14:12;100656.59;;;9.76;100.00
54172;BME280;40076;52.354;4.970;2022-11-15T05:16:38;100671.31;;;9.79;100.00
54172;BME280;40076;52.354;4.970;2022-11-15T05:19:04;100673.72;;;9.80;100.00
54172;BME280;40076;52.354;4.970;2022-11-15T05:21:30;100670.69;;;9.82;100.00
54172;BME280;40076;52.354;4.970;2022-11-15T05:23:55;100671.94;;;9.84;100.00
54172;BME280;40076;52.354;4.970;2022-11-15T05:26:20;100672.44;;;9.86;100.00
54172;BME280;40076;52.354;4.970;2022-11-15T05:28:46;100676.41;;;9.89;100.00
54172;BME280;40076;52.354;4.970;2022-11-15T05:31:14;100672.91;;;9.88;100.00
54172;BME280;40076;52.354;4.970;2022-11-15T05:33:40;100675.75;;;9.92;100.00
54172;BME280;40076;52.354;4.970;2022-11-15T05:38:34;100675.63;;;9.97;100.00
54172;BME280;40076;52.354;4.970;2022-11-15T05:41:00;100681.50;;;9.99;100.00
54172;BME280;40076;52.354;4.970;2022-11-15T05:43:27;100671.97;;;10.01;100.00
54172;BME280;40076;52.354;4.970;2022-11-15T05:45:54;100681.66;;;10.02;100.00
54172;BME280;40076;52.354;4.970;2022-11-15T05:48:19;100681.81;;;10.06;100.00
54172;BME280;40076;52.354;4.970;2022-11-15T05:50:46;100683.88;;;10.09;100.00
54172;BME280;40076;52.354;4.970;2022-11-15T05:53:14;100673.84;;;10.10;100.00
54172;BME280;40076;52.354;4.970;2022-11-15T05:55:41;100675.13;;;10.12;100.00
54172;BME280;40076;52.354;4.970;2022-11-15T05:58:07;100674.81;;;10.14;100.00
54172;BME280;40076;52.354;4.970;2022-11-15T06:00:32;100679.88;;;10.15;100.00
54172;BME280;40076;52.354;4.970;2022-11-15T06:02:58;100684.16;;;10.16;100.00
54172;BME280;40076;52.354;4.970;2022-11-15T06:05:35;100680.09;;;10.19;100.00
54172;BME280;40076;52.354;4.970;2022-11-15T06:08:03;100684.69;;;10.18;100.00
54172;BME280;40076;52.354;4.970;2022-11-15T06:10:28;100684.38;;;10.20;100.00
54172;BME280;40076;52.354;4.970;2022-11-15T06:13:02;100691.03;;;10.22;100.00
54172;BME280;40076;52.354;4.970;2022-11-15T06:15:27;100686.09;;;10.24;100.00
54172;BME280;40076;52.354;4.970;2022-11-15T06:17:56;100695.78;;;10.25;100.00
54172;BME280;40076;52.354;4.970;2022-11-15T06:20:23;100695.47;;;10.27;100.00
54172;BME280;40076;52.354;4.970;2022-11-15T06:22:48;100688.19;;;10.27;100.00
54172;BME280;40076;52.354;4.970;2022-11-15T06:25:14;100701.03;;;10.30;100.00
54172;BME280;40076;52.354;4.970;2022-11-15T06:27:39;100701.03;;;10.30;100.00
54172;BME280;40076;52.354;4.970;2022-11-15T06:30:05;100712.78;;;10.34;100.00
54172;BME280;40076;52.354;4.970;2022-11-15T06:32:30;100703.88;;;10.34;100.00
54172;BME280;40076;52.354;4.970;2022-11-15T06:34:56;100707.06;;;10.36;100.00
54172;BME280;40076;52.354;4.970;2022-11-15T06:37:21;100713.28;;;10.36;100.00
54172;BME280;40076;52.354;4.970;2022-11-15T06:39:46;100711.38;;;10.37;100.00
54172;BME280;40076;52.354;4.970;2022-11-15T06:42:12;100709.13;;;10.39;100.00
54172;BME280;40076;52.354;4.970;2022-11-15T06:44:37;100705.63;;;10.38;100.00
54172;BME280;40076;52.354;4.970;2022-11-15T06:47:02;100716.59;;;10.42;100.00
54172;BME280;40076;52.354;4.970;2022-11-15T06:49:28;100718.19;;;10.43;100.00
54172;BME280;40076;52.354;4.970;2022-11-15T06:51:53;100710.41;;;10.41;100.00
54172;BME280;40076;52.354;4.970;2022-11-15T06:54:18;100726.78;;;10.45;100.00
54172;BME280;40076;52.354;4.970;2022-11-15T06:56:45;100721.38;;;10.45;100.00
54172;BME280;40076;52.354;4.970;2022-11-15T06:59:11;100722.13;;;10.45;100.00
54172;BME280;40076;52.354;4.970;2022-11-15T07:01:36;100722.94;;;10.46;100.00
54172;BME280;40076;52.354;4.970;2022-11-15T07:04:01;100729.91;;;10.47;100.00
54172;BME280;40076;52.354;4.970;2022-11-15T07:06:27;100723.72;;;10.47;100.00
54172;BME280;40076;52.354;4.970;2022-11-15T07:08:52;100729.91;;;10.47;100.00
54172;BME280;40076;52.354;4.970;2022-11-15T07:11:17;100732.31;;;10.49;100.00
54172;BME280;40076;52.354;4.970;2022-11-15T07:13:43;100725.31;;;10.48;100.00
54172;BME280;40076;52.354;4.970;2022-11-15T07:16:09;100729.28;;;10.50;100.00
54172;BME280;40076;52.354;4.970;2022-11-15T07:18:36;100729.28;;;10.50;100.00
54172;BME280;40076;52.354;4.970;2022-11-15T07:21:03;100731.69;;;10.52;100.00
54172;BME280;40076;52.354;4.970;2022-11-15T07:23:29;100733.09;;;10.49;100.00
54172;BME280;40076;52.354;4.970;2022-11-15T07:25:59;100725.47;;;10.51;100.00
54172;BME280;40076;52.354;4.970;2022-11-15T07:28:27;100731.19;;;10.50;100.00
54172;BME280;40076;52.354;4.970;2022-11-15T07:30:53;100729.78;;;10.52;100.00
54172;BME280;40076;52.354;4.970;2022-11-15T07:33:19;100723.22;;;10.53;100.00
54172;BME280;40076;52.354;4.970;2022-11-15T07:35:44;100723.22;;;10.53;100.00
54172;BME280;40076;52.354;4.970;2022-11-15T07:38:13;100723.56;;;10.52;100.00
54172;BME280;40076;52.354;4.970;2022-11-15T07:40:39;100722.47;;;10.53;100.00
54172;BME280;40076;52.354;4.970;2022-11-15T07:43:07;100722.78;;;10.51;100.00
54172;BME280;40076;52.354;4.970;2022-11-15T07:45:42;100730.88;;;10.51;100.00
54172;BME280;40076;52.354;4.970;2022-11-15T07:48:08;100727.06;;;10.52;100.00
54172;BME280;40076;52.354;4.970;2022-11-15T07:50:33;100729.28;;;10.50;100.00
54172;BME280;40076;52.354;4.970;2022-11-15T07:52:59;100734.69;;;10.50;100.00
54172;BME280;40076;52.354;4.970;2022-11-15T07:55:26;100733.59;;;10.51;100.00
54172;BME280;40076;52.354;4.970;2022-11-15T07:57:52;100731.69;;;10.52;100.00
54172;BME280;40076;52.354;4.970;2022-11-15T08:00:18;100724.38;;;10.52;100.00
54172;BME280;40076;52.354;4.970;2022-11-15T08:02:47;100705.78;;;10.51;100.00
54172;BME280;40076;52.354;4.970;2022-11-15T08:05:12;100714.69;;;10.51;100.00
54172;BME280;40076;52.354;4.970;2022-11-15T08:07:38;100712.28;;;10.50;100.00
54172;BME280;40076;52.354;4.970;2022-11-15T08:10:06;100712.44;;;10.53;100.00
54172;BME280;40076;52.354;4.970;2022-11-15T08:12:33;100709.72;;;10.53;100.00
54172;BME280;40076;52.354;4.970;2022-11-15T08:14:59;100705.47;;;10.52;100.00
54172;BME280;40076;52.354;4.970;2022-11-15T08:17:24;100703.56;;;10.53;100.00
54172;BME280;40076;52.354;4.970;2022-11-15T08:19:50;100710.19;;;10.55;100.00
54172;BME280;40076;52.354;4.970;2022-11-15T08:22:15;100704.81;;;10.55;100.00
54172;BME280;40076;52.354;4.970;2022-11-15T08:24:41;100701.47;;;10.58;100.00
54172;BME280;40076;52.354;4.970;2022-11-15T08:27:06;100703.06;;;10.59;100.00
54172;BME280;40076;52.354;4.970;2022-11-15T08:29:42;100704.66;;;10.60;100.00
54172;BME280;40076;52.354;4.970;2022-11-15T08:32:07;100699.56;;;10.59;100.00
54172;BME280;40076;52.354;4.970;2022-11-15T08:34:33;100696.19;;;10.62;100.00
54172;BME280;40076;52.354;4.970;2022-11-15T08:37:01;100689.69;;;10.63;100.00
54172;BME280;40076;52.354;4.970;2022-11-15T08:39:29;100682.38;;;10.63;100.00
54172;BME280;40076;52.354;4.970;2022-11-15T08:42:01;100678.25;;;10.66;100.00
54172;BME280;40076;52.354;4.970;2022-11-15T08:44:27;100678.72;;;10.68;100.00
54172;BME280;40076;52.354;4.970;2022-11-15T08:47:04;100678.72;;;10.68;100.00
54172;BME280;40076;52.354;4.970;2022-11-15T08:49:41;100684.56;;;10.70;100.00
54172;BME280;40076;52.354;4.970;2022-11-15T08:52:09;100679.66;;;10.72;100.00
54172;BME280;40076;52.354;4.970;2022-11-15T08:54:42;100686.31;;;10.74;100.00
54172;BME280;40076;52.354;4.970;2022-11-15T08:57:07;100673.59;;;10.75;100.00
54172;BME280;40076;52.354;4.970;2022-11-15T08:59:37;100674.84;;;10.77;100.00
54172;BME280;40076;52.354;4.970;2022-11-15T09:02:03;100672.63;;;10.79;100.00
54172;BME280;40076;52.354;4.970;2022-11-15T09:04:29;100668.81;;;10.80;100.00
54172;BME280;40076;52.354;4.970;2022-11-15T09:06:55;100669.59;;;10.81;100.00
54172;BME280;40076;52.354;4.970;2022-11-15T09:09:30;100667.38;;;10.83;100.00
54172;BME280;40076;52.354;4.970;2022-11-15T09:12:03;100675.50;;;10.83;100.00
54172;BME280;40076;52.354;4.970;2022-11-15T09:14:29;100669.72;;;10.84;100.00
54172;BME280;40076;52.354;4.970;2022-11-15T09:16:57;100660.19;;;10.87;100.00
54172;BME280;40076;52.354;4.970;2022-11-15T09:19:23;100668.78;;;10.89;100.00
54172;BME280;40076;52.354;4.970;2022-11-15T09:21:59;100663.06;;;10.91;100.00
54172;BME280;40076;52.354;4.970;2022-11-15T09:24:24;100660.16;;;10.96;100.00
54172;BME280;40076;52.354;4.970;2022-11-15T09:26:51;100663.97;;;10.95;100.00
54172;BME280;40076;52.354;4.970;2022-11-15T09:29:17;100655.22;;;10.98;100.00
54172;BME280;40076;52.354;4.970;2022-11-15T09:31:42;100656.16;;;11.02;100.00
54172;BME280;40076;52.354;4.970;2022-11-15T09:34:08;100661.72;;;11.05;100.00
54172;BME280;40076;52.354;4.970;2022-11-15T09:36:36;100646.72;;;11.08;100.00
54172;BME280;40076;52.354;4.970;2022-11-15T09:39:01;100645.28;;;11.10;100.00
54172;BME280;40076;52.354;4.970;2022-11-15T09:41:34;100652.41;;;11.15;100.00
54172;BME280;40076;52.354;4.970;2022-11-15T09:49:53;100659.69;;;11.23;100.00
54172;BME280;40076;52.354;4.970;2022-11-15T09:52:25;100652.84;;;11.26;100.00
54172;BME280;40076;52.354;4.970;2022-11-15T09:54:51;100655.22;;;11.27;100.00
54172;BME280;40076;52.354;4.970;2022-11-15T09:58:00;100645.66;;;11.30;100.00
54172;BME280;40076;52.354;4.970;2022-11-15T10:00:38;100648.81;;;11.32;100.00
54172;BME280;40076;52.354;4.970;2022-11-15T10:03:14;100655.97;;;11.36;100.00
54172;BME280;40076;52.354;4.970;2022-11-15T10:05:45;100652.91;;;11.38;100.00
54172;BME280;40076;52.354;4.970;2022-11-15T10:08:14;100644.94;;;11.41;100.00
54172;BME280;40076;52.354;4.970;2022-11-15T10:10:48;100649.56;;;11.41;100.00
54172;BME280;40076;52.354;4.970;2022-11-15T10:13:26;100645.44;;;11.43;100.00
54172;BME280;40076;52.354;4.970;2022-11-15T10:16:04;100639.22;;;11.43;100.00
54172;BME280;40076;52.354;4.970;2022-11-15T10:18:50;100627.94;;;11.41;100.00
54172;BME280;40076;52.354;4.970;2022-11-15T10:21:21;100626.50;;;11.43;100.00
54172;BME280;40076;52.354;4.970;2022-11-15T10:23:50;100633.94;;;11.46;100.00
54172;BME280;40076;52.354;4.970;2022-11-15T10:26:17;100622.47;;;11.49;100.00
54172;BME280;40076;52.354;4.970;2022-11-15T10:28:42;100616.72;;;11.51;100.00
54172;BME280;40076;52.354;4.970;2022-11-15T10:31:26;100601.59;;;11.50;100.00
54172;BME280;40076;52.354;4.970;2022-11-15T10:34:00;100602.03;;;11.52;100.00
54172;BME280;40076;52.354;4.970;2022-11-15T10:36:36;100589.66;;;11.51;100.00
54172;BME280;40076;52.354;4.970;2022-11-15T10:39:05;100586.59;;;11.52;100.00
54172;BME280;40076;52.354;4.970;2022-11-15T10:41:34;100578.97;;;11.54;100.00
54172;BME280;40076;52.354;4.970;2022-11-15T10:46:35;100575.28;;;11.59;100.00
54172;BME280;40076;52.354;4.970;2022-11-15T10:49:27;100573.81;;;11.61;100.00
54172;BME280;40076;52.354;4.970;2022-11-15T10:54:49;100571.25;;;11.65;100.00
54172;BME280;40076;52.354;4.970;2022-11-15T10:57:20;100565.50;;;11.67;100.00
54172;BME280;40076;52.354;4.970;2022-11-15T10:59:51;100566.72;;;11.69;100.00
54172;BME280;40076;52.354;4.970;2022-11-15T11:02:32;100549.03;;;11.72;100.00
54172;BME280;40076;52.354;4.970;2022-11-15T11:05:05;100552.22;;;11.74;100.00
54172;BME280;40076;52.354;4.970;2022-11-15T11:07:34;100548.41;;;11.75;100.00
54172;BME280;40076;52.354;4.970;2022-11-15T11:10:17;100532.63;;;11.77;100.00
54172;BME280;40076;52.354;4.970;2022-11-15T11:12:45;100539.28;;;11.79;100.00
54172;BME280;40076;52.354;4.970;2022-11-15T11:15:13;100535.78;;;11.79;100.00
54172;BME280;40076;52.354;4.970;2022-11-15T11:18:07;100537.84;;;11.82;100.00
54172;BME280;40076;52.354;4.970;2022-11-15T11:20:38;100543.38;;;11.85;100.00
54172;BME280;40076;52.354;4.970;2022-11-15T11:23:33;100541.44;;;11.86;100.00
54172;BME280;40076;52.354;4.970;2022-11-15T11:31:14;100541.69;;;11.93;100.00
54172;BME280;40076;52.354;4.970;2022-11-15T11:33:59;100539.78;;;11.93;100.00
54172;BME280;40076;52.354;4.970;2022-11-15T11:36:44;100533.69;;;11.96;100.00
54172;BME280;40076;52.354;4.970;2022-11-15T11:48:13;100510.22;;;12.01;100.00
54172;BME280;40076;52.354;4.970;2022-11-15T11:50:43;100511.50;;;12.03;100.00
54172;BME280;40076;52.354;4.970;2022-11-15T11:53:30;100499.88;;;12.03;100.00
54172;BME280;40076;52.354;4.970;2022-11-15T11:56:16;100488.34;;;12.06;100.00
54172;BME280;40076;52.354;4.970;2022-11-15T11:58:45;100484.50;;;12.07;100.00
54172;BME280;40076;52.354;4.970;2022-11-15T12:01:16;100473.81;;;12.10;100.00
54172;BME280;40076;52.354;4.970;2022-11-15T12:03:54;100467.28;;;12.11;100.00
54172;BME280;40076;52.354;4.970;2022-11-15T12:06:51;100469.28;;;12.14;100.00
54172;BME280;40076;52.354;4.970;2022-11-15T12:09:30;100463.53;;;12.16;100.00
54172;BME280;40076;52.354;4.970;2022-11-15T12:15:18;100449.66;;;12.17;100.00
54172;BME280;40076;52.354;4.970;2022-11-15T12:17:42;100446.50;;;12.15;100.00
54172;BME280;40076;52.354;4.970;2022-11-15T12:20:23;100451.56;;;12.17;100.00
54172;BME280;40076;52.354;4.970;2022-11-15T12:22:58;100448.53;;;12.18;100.00
54172;BME280;40076;52.354;4.970;2022-11-15T12:31:09;100422.00;;;12.24;100.00
54172;BME280;40076;52.354;4.970;2022-11-15T12:38:56;100425.16;;;12.26;100.00
54172;BME280;40076;52.354;4.970;2022-11-15T12:41:29;100418.16;;;12.25;100.00
54172;BME280;40076;52.354;4.970;2022-11-15T12:43:56;100410.84;;;12.25;100.00
54172;BME280;40076;52.354;4.970;2022-11-15T12:49:41;100389.63;;;12.27;100.00
54172;BME280;40076;52.354;4.970;2022-11-15T12:52:10;100394.34;;;12.30;100.00
54172;BME280;40076;52.354;4.970;2022-11-15T13:00:00;100381.91;;;12.29;100.00
54172;BME280;40076;52.354;4.970;2022-11-15T13:02:38;100375.38;;;12.30;100.00
54172;BME280;40076;52.354;4.970;2022-11-15T13:12:54;100370.50;;;12.36;100.00
54172;BME280;40076;52.354;4.970;2022-11-15T13:17:53;100359.00;;;12.39;100.00
54172;BME280;40076;52.354;4.970;2022-11-15T13:26:08;100333.34;;;12.49;100.00
54172;BME280;40076;52.354;4.970;2022-11-15T13:31:29;100329.94;;;12.52;100.00
54172;BME280;40076;52.354;4.970;2022-11-15T13:34:03;100325.31;;;12.52;100.00
54172;BME280;40076;52.354;4.970;2022-11-15T13:36:38;100321.47;;;12.53;100.00
54172;BME280;40076;52.354;4.970;2022-11-15T13:39:06;100322.25;;;12.54;100.00
54172;BME280;40076;52.354;4.970;2022-11-15T13:41:45;100318.88;;;12.57;98.92
54172;BME280;40076;52.354;4.970;2022-11-15T13:44:25;100309.16;;;12.56;98.51
54172;BME280;40076;52.354;4.970;2022-11-15T13:47:13;100304.97;;;12.58;98.80
54172;BME280;40076;52.354;4.970;2022-11-15T13:49:39;100302.63;;;12.57;97.68
54172;BME280;40076;52.354;4.970;2022-11-15T13:52:07;100299.13;;;12.56;97.19
54172;BME280;40076;52.354;4.970;2022-11-15T14:00:21;100295.16;;;12.54;96.47
54172;BME280;40076;52.354;4.970;2022-11-15T14:02:47;100280.03;;;12.53;95.86
54172;BME280;40076;52.354;4.970;2022-11-15T14:05:22;100283.88;;;12.52;95.31
54172;BME280;40076;52.354;4.970;2022-11-15T14:08:41;100282.66;;;12.49;95.17
54172;BME280;40076;52.354;4.970;2022-11-15T14:10:41;100272.94;;;12.48;95.16
54172;BME280;40076;52.354;4.970;2022-11-15T14:13:26;100274.88;;;12.48;95.20
54172;BME280;40076;52.354;4.970;2022-11-15T14:16:15;100266.19;;;12.42;94.16
54172;BME280;40076;52.354;4.970;2022-11-15T14:18:49;100264.63;;;12.41;94.59
54172;BME280;40076;52.354;4.970;2022-11-15T14:21:16;100263.50;;;12.42;94.89
54172;BME280;40076;52.354;4.970;2022-11-15T14:23:41;100257.63;;;12.40;94.79
54172;BME280;40076;52.354;4.970;2022-11-15T14:26:25;100250.63;;;12.39;94.95
54172;BME280;40076;52.354;4.970;2022-11-15T14:28:51;100244.75;;;12.37;94.74
54172;BME280;40076;52.354;4.970;2022-11-15T14:31:17;100241.63;;;12.35;94.77
54172;BME280;40076;52.354;4.970;2022-11-15T14:33:43;100240.81;;;12.34;94.43
54172;BME280;40076;52.354;4.970;2022-11-15T14:36:17;100238.13;;;12.34;94.70
54172;BME280;40076;52.354;4.970;2022-11-15T14:38:43;100232.69;;;12.34;94.44
54172;BME280;40076;52.354;4.970;2022-11-15T14:41:20;100224.91;;;12.33;94.31
54172;BME280;40076;52.354;4.970;2022-11-15T14:43:46;100226.03;;;12.32;94.18
54172;BME280;40076;52.354;4.970;2022-11-15T14:46:11;100217.03;;;12.28;93.83